METAR Data
IDs: Format: Raw Decoded Include TAF

Data at: 2143 UTC 08 Aug 2020

KTUS 082053Z 24008KT 10SM CLR 39/08 A2997 RMK AO2 SLP090 T03940078 56021
KTUS 081953Z 10SM CLR 38/07 A3000 RMK AO2 SLP098 T03830072
KTUS 081853Z VRB06KT 10SM CLR 38/08 A3002 RMK AO2 SLP104 T03780078
KTUS 081753Z 00000KT 10SM CLR 36/09 A3004 RMK AO2 SLP114 T03560089 10367 20250 58006
KTUS 081653Z 29005KT 10SM CLR 34/09 A3005 RMK AO2 SLP116 T03390089
KTUS 081553Z 00000KT 10SM CLR 32/10 A3005 RMK AO2 SLP119 T03220100
KTUS 081453Z 19003KT 10SM CLR 29/11 A3006 RMK AO2 SLP122 T02890106 51014
KTUS 081353Z 18005KT 10SM CLR 27/11 A3005 RMK AO2 SLP118 T02670106
KTUS 081253Z 16006KT 10SM CLR 26/10 A3003 RMK AO2 SLP115 T02560100
KTUS 081153Z 20003KT 10SM CLR 26/09 A3001 RMK AO2 SLP107 T02610094 10333 20261 53005
KTUS 081053Z 17006KT 10SM CLR 28/09 A3000 RMK AO2 SLP102 T02780089
KTUS 080953Z 15008KT 10SM CLR 28/08 A3000 RMK AO2 SLP101 T02830083
KTUS 080853Z 16004KT 10SM CLR 29/09 A3000 RMK AO2 SLP100 T02940089 50002
KTUS 080753Z 18007KT 10SM CLR 30/08 A3000 RMK AO2 SLP101 T03000083
KTUS 080653Z 18006KT 10SM CLR 32/08 A3001 RMK AO2 SLP103 T03220078 404000278
KTUS 080553Z 28003KT 10SM CLR 33/08 A2999 RMK AO2 SLP097 T03330078 10394 20333 51016
KTUS 080453Z 27008KT 10SM CLR 34/07 A2998 RMK AO2 SLP095 T03440067
KTUS 080353Z 28010KT 10SM CLR 35/07 A2997 RMK AO2 SLP089 T03500067
KTUS 080253Z 23009G15KT 10SM FEW090 BKN110 37/06 A2994 RMK AO2 PK WND 23029/0220 SLP081 T03670056 53008
KTUS 080153Z 33003KT 10SM CLR 38/04 A2993 RMK AO2 SLP077 T03780044
KTUS 080053Z 10004KT 10SM CLR 38/04 A2992 RMK AO2 SLP073 T03780044
KTUS 072353Z 00000KT 10SM CLR 38/04 A2992 RMK AO2 SLP072 T03830044 10400 20356 56017
KTUS 072253Z 00000KT 10SM CLR 39/05 A2993 RMK AO2 SLP076 T03940050
KTUS 072153Z 11007KT 10SM CLR 38/03 A2995 RMK AO2 SLP083 T03830033
KTUS 072053Z 04007KT 10SM CLR 39/03 A2997 RMK AO2 SLP089 T03940028 58013
KTUS 071953Z 36008KT 10SM FEW120 39/02 A2998 RMK AO2 SLP092 T03940022
KTUS 071853Z VRB03KT 10SM CLR 37/03 A3000 RMK AO2 SLP100 T03670028
KTUS 071753Z VRB03KT 10SM CLR 36/05 A3001 RMK AO2 SLP104 T03610050 10367 20278 50002
KTUS 071653Z 00000KT 10SM CLR 34/09 A3003 RMK AO2 SLP109 T03390094
KTUS 071553Z 17006KT 10SM CLR 33/11 A3002 RMK AO2 SLP107 T03280111
KTUS 071453Z 14008KT 10SM CLR 30/11 A3000 RMK AO2 SLP103 T03000111 51013
KTUS 071353Z 12007KT 10SM CLR 28/11 A3000 RMK AO2 SLP100 T02780111
KTUS 071253Z 14008KT 10SM CLR 28/11 A2998 RMK AO2 SLP093 T02780111
KTUS 071153Z 22003KT 10SM CLR 29/11 A2996 RMK AO2 SLP088 T02890106 10328 20283 53004
KTUS 071053Z 23005KT 10SM CLR 29/11 A2995 RMK AO2 SLP084 T02890111
KTUS 070953Z 19003KT 10SM CLR 29/11 A2995 RMK AO2 SLP082 T02940111